createdAt,value
2022-12-13T00:01:47.210Z,1.40
2022-12-13T00:04:15.541Z,1.53
2022-12-13T00:06:43.722Z,1.90
2022-12-13T00:09:14.989Z,1.67
2022-12-13T00:11:43.694Z,1.53
2022-12-13T00:14:14.155Z,2.10
2022-12-13T00:16:42.795Z,1.77
2022-12-13T00:19:10.884Z,2.20
2022-12-13T00:21:39.065Z,2.53
2022-12-13T00:24:09.600Z,2.73
2022-12-13T00:26:39.355Z,2.40
2022-12-13T00:29:09.222Z,2.60
2022-12-13T00:34:25.780Z,2.37
2022-12-13T00:36:55.560Z,2.20
2022-12-13T00:39:23.788Z,2.57
2022-12-13T00:41:53.300Z,2.00
2022-12-13T00:44:21.483Z,2.47
2022-12-13T00:46:51.892Z,2.70
2022-12-13T00:49:20.795Z,3.27
2022-12-13T00:51:50.298Z,4.47
2022-12-13T00:54:18.692Z,2.60
2022-12-13T00:56:46.872Z,2.43
2022-12-13T00:59:16.871Z,2.40
2022-12-13T01:01:45.494Z,2.67
2022-12-13T01:04:14.191Z,2.53
2022-12-13T01:06:45.838Z,2.43
2022-12-13T01:09:18.389Z,3.17
2022-12-13T01:11:48.002Z,2.30
2022-12-13T01:14:18.925Z,2.40
2022-12-13T01:16:47.283Z,2.40
2022-12-13T01:19:15.430Z,2.37
2022-12-13T01:21:43.530Z,2.37
2022-12-13T01:24:12.106Z,2.83
2022-12-13T01:26:40.160Z,2.60
2022-12-13T01:29:09.107Z,2.70
2022-12-13T01:31:41.728Z,2.53
2022-12-13T01:34:13.197Z,2.77
2022-12-13T01:36:42.621Z,2.90
2022-12-13T01:39:14.678Z,2.83
2022-12-13T01:41:44.770Z,2.73
2022-12-13T01:44:45.926Z,2.50
2022-12-13T01:47:18.918Z,3.07
2022-12-13T01:49:47.603Z,2.73
2022-12-13T01:52:17.929Z,3.00
2022-12-13T01:54:54.824Z,3.00
2022-12-13T01:57:32.987Z,3.20
2022-12-13T02:00:01.498Z,2.83
2022-12-13T02:02:31.741Z,3.30
2022-12-13T02:05:06.906Z,3.17
2022-12-13T02:07:37.072Z,3.13
2022-12-13T02:10:07.710Z,3.30
2022-12-13T02:12:38.060Z,2.80
2022-12-13T02:15:13.658Z,3.00
2022-12-13T02:17:58.412Z,3.77
2022-12-13T02:20:47.604Z,3.30
2022-12-13T02:23:43.172Z,3.47
2022-12-13T02:26:36.343Z,3.80
2022-12-13T02:29:30.357Z,3.47
2022-12-13T02:32:05.536Z,4.00
2022-12-13T02:34:40.220Z,3.90
2022-12-13T02:37:17.823Z,3.13
2022-12-13T02:39:56.832Z,3.70
2022-12-13T02:42:30.637Z,3.40
2022-12-13T02:45:04.915Z,3.30
2022-12-13T02:47:36.949Z,3.77
2022-12-13T02:50:09.091Z,3.67
2022-12-13T02:52:38.495Z,4.20
2022-12-13T02:55:08.741Z,4.10
2022-12-13T02:57:38.458Z,3.40
2022-12-13T03:00:08.954Z,4.03
2022-12-13T03:02:47.462Z,3.70
2022-12-13T03:05:46.156Z,3.77
2022-12-13T03:08:23.977Z,4.00
2022-12-13T03:11:07.322Z,3.73
2022-12-13T03:13:41.621Z,3.43
2022-12-13T03:16:23.737Z,3.70
2022-12-13T03:18:55.208Z,3.87
2022-12-13T03:21:23.497Z,4.20
2022-12-13T03:23:52.087Z,4.33
2022-12-13T03:26:23.259Z,3.53
2022-12-13T03:28:51.740Z,4.13
2022-12-13T03:31:20.141Z,3.63
2022-12-13T03:33:48.599Z,4.03
2022-12-13T03:36:20.027Z,4.00
2022-12-13T03:38:52.420Z,3.50
2022-12-13T03:41:24.142Z,4.10
2022-12-13T03:43:52.323Z,4.07
2022-12-13T03:46:20.605Z,3.77
2022-12-13T03:48:49.266Z,3.90
2022-12-13T03:51:18.916Z,3.60
2022-12-13T03:53:47.205Z,3.90
2022-12-13T03:56:15.413Z,3.63
2022-12-13T03:58:43.713Z,3.93
2022-12-13T04:01:14.198Z,3.83
2022-12-13T04:03:44.160Z,3.80
2022-12-13T04:06:12.941Z,3.63
2022-12-13T04:08:53.358Z,4.07
2022-12-13T04:11:42.684Z,4.10
2022-12-13T04:14:11.481Z,4.10
2022-12-13T04:16:39.770Z,4.40
2022-12-13T04:19:07.905Z,3.70
2022-12-13T04:21:39.267Z,3.73
2022-12-13T04:24:12.332Z,3.80
2022-12-13T04:26:44.994Z,5.93
2022-12-13T04:29:13.631Z,5.80
2022-12-13T04:31:43.946Z,4.13
2022-12-13T04:34:16.173Z,6.37
2022-12-13T04:36:44.414Z,6.77
2022-12-13T04:39:22.341Z,4.37
2022-12-13T04:41:53.243Z,5.60
2022-12-13T04:44:29.019Z,4.63
2022-12-13T04:47:01.143Z,5.00
2022-12-13T04:49:29.838Z,4.63
2022-12-13T04:52:01.413Z,4.70
2022-12-13T04:54:35.602Z,4.70
2022-12-13T04:57:06.664Z,4.67
2022-12-13T04:59:34.852Z,4.90
2022-12-13T05:02:02.879Z,4.40
2022-12-13T05:04:33.116Z,4.93
2022-12-13T05:07:01.765Z,4.80
2022-12-13T05:09:31.581Z,6.37
2022-12-13T05:12:00.888Z,4.60
2022-12-13T05:14:30.245Z,4.13
2022-12-13T05:16:58.760Z,4.07
2022-12-13T05:19:31.013Z,4.63
2022-12-13T05:22:01.170Z,4.13
2022-12-13T05:24:32.881Z,4.27
2022-12-13T05:27:01.299Z,4.73
2022-12-13T05:29:29.871Z,7.13
2022-12-13T05:31:58.193Z,4.40
2022-12-13T05:34:26.879Z,5.23
2022-12-13T05:36:55.059Z,5.40
2022-12-13T05:39:27.773Z,4.90
2022-12-13T05:42:02.268Z,6.00
2022-12-13T05:44:31.792Z,5.57
2022-12-13T05:47:01.997Z,6.30
2022-12-13T05:49:30.895Z,5.73
2022-12-13T05:51:58.989Z,5.60
2022-12-13T05:54:28.100Z,5.40
2022-12-13T05:56:56.493Z,5.50
2022-12-13T05:59:26.146Z,5.30
2022-12-13T06:01:54.383Z,5.60
2022-12-13T06:04:23.523Z,5.93
2022-12-13T06:06:52.185Z,6.47
2022-12-13T06:09:22.515Z,5.87
2022-12-13T06:11:51.378Z,6.03
2022-12-13T06:14:21.471Z,6.67
2022-12-13T06:16:52.918Z,5.90
2022-12-13T06:19:21.605Z,7.17
2022-12-13T06:21:49.841Z,6.87
2022-12-13T06:24:19.470Z,6.50
2022-12-13T06:26:48.123Z,6.20
2022-12-13T06:29:24.516Z,5.43
2022-12-13T06:32:02.459Z,5.67
2022-12-13T06:34:33.720Z,5.73
2022-12-13T06:37:02.926Z,5.73
2022-12-13T06:39:32.843Z,5.23
2022-12-13T06:42:02.387Z,6.03
2022-12-13T06:44:30.414Z,5.77
2022-12-13T06:47:11.402Z,7.20
2022-12-13T06:49:42.054Z,6.70
2022-12-13T06:52:11.968Z,7.13
2022-12-13T06:54:40.197Z,6.53
2022-12-13T06:57:08.285Z,6.27
2022-12-13T06:59:36.503Z,6.47
2022-12-13T07:02:06.003Z,6.17
2022-12-13T07:04:34.319Z,6.10
2022-12-13T07:07:02.780Z,6.43
2022-12-13T07:09:31.872Z,7.73
2022-12-13T07:12:00.978Z,6.73
2022-12-13T07:14:29.051Z,6.03
2022-12-13T07:17:03.419Z,6.37
2022-12-13T07:19:35.520Z,6.63
2022-12-13T07:22:06.067Z,6.67
2022-12-13T07:24:35.406Z,6.80
2022-12-13T07:27:03.740Z,6.50
2022-12-13T07:29:31.854Z,5.57
2022-12-13T07:32:01.146Z,6.43
2022-12-13T07:34:30.842Z,5.90
2022-12-13T07:37:00.630Z,6.33
2022-12-13T07:39:28.668Z,7.30
2022-12-13T07:41:57.090Z,6.07
2022-12-13T07:44:25.447Z,6.27
2022-12-13T07:46:53.899Z,5.60
2022-12-13T07:49:22.248Z,5.30
2022-12-13T07:51:50.371Z,5.50
2022-12-13T07:54:20.001Z,6.33
2022-12-13T07:56:48.048Z,8.03
2022-12-13T07:59:16.070Z,6.93
2022-12-13T08:01:56.888Z,6.93
2022-12-13T08:04:25.184Z,6.40
2022-12-13T08:06:53.338Z,5.80
2022-12-13T08:09:25.189Z,5.50
2022-12-13T08:11:53.233Z,6.10
2022-12-13T08:14:21.289Z,4.30
2022-12-13T08:16:49.603Z,4.67
2022-12-13T08:19:17.641Z,6.70
2022-12-13T08:21:54.746Z,6.40
2022-12-13T08:24:26.743Z,5.47
2022-12-13T08:26:55.209Z,5.30
2022-12-13T08:29:33.952Z,5.30
2022-12-13T08:32:04.929Z,6.43
2022-12-13T08:34:32.990Z,6.70
2022-12-13T08:37:03.256Z,7.70
2022-12-13T08:39:35.950Z,6.77
2022-12-13T08:42:16.458Z,6.77
2022-12-13T08:44:46.925Z,6.87
2022-12-13T08:47:24.621Z,5.83
2022-12-13T08:50:01.297Z,6.37
2022-12-13T08:52:31.758Z,6.17
2022-12-13T08:55:01.258Z,5.53
2022-12-13T08:57:29.412Z,5.30
2022-12-13T08:59:57.551Z,6.50
2022-12-13T09:02:25.792Z,5.97
2022-12-13T09:04:54.242Z,5.53
2022-12-13T09:07:22.550Z,5.60
2022-12-13T09:09:54.739Z,7.43
2022-12-13T09:12:30.523Z,5.90
2022-12-13T09:15:01.007Z,5.77
2022-12-13T09:17:36.755Z,5.90
2022-12-13T09:20:10.411Z,6.27
2022-12-13T09:23:01.838Z,5.80
2022-12-13T09:25:37.484Z,5.67
2022-12-13T09:28:09.793Z,7.20
2022-12-13T09:30:40.105Z,7.00
2022-12-13T09:33:27.969Z,5.10
2022-12-13T09:35:56.202Z,6.00
2022-12-13T09:38:24.690Z,6.00
2022-12-13T09:40:58.467Z,5.63
2022-12-13T09:43:33.843Z,5.33
2022-12-13T09:46:23.683Z,6.27
2022-12-13T09:49:01.415Z,5.53
2022-12-13T09:51:43.664Z,6.10
2022-12-13T09:54:19.937Z,6.53
2022-12-13T09:56:51.185Z,5.83
2022-12-13T09:59:27.543Z,6.70
2022-12-13T10:01:56.099Z,6.33
2022-12-13T10:04:24.593Z,8.00
2022-12-13T10:06:54.739Z,8.07
2022-12-13T10:09:23.481Z,6.57
2022-12-13T10:11:53.110Z,6.63
2022-12-13T10:14:29.074Z,7.07
2022-12-13T10:17:01.564Z,8.30
2022-12-13T10:19:35.597Z,6.27
2022-12-13T10:22:06.259Z,6.60
2022-12-13T10:24:51.152Z,6.50
2022-12-13T10:27:21.597Z,7.43
2022-12-13T10:30:14.705Z,6.43
2022-12-13T10:32:54.343Z,6.37
2022-12-13T10:35:26.721Z,6.20
2022-12-13T10:37:56.446Z,7.43
2022-12-13T10:40:45.345Z,6.03
2022-12-13T10:43:15.434Z,6.47
2022-12-13T10:45:57.651Z,5.73
2022-12-13T10:48:38.216Z,6.60
2022-12-13T10:51:09.291Z,6.90
2022-12-13T10:53:47.888Z,7.23
2022-12-13T10:56:22.931Z,6.37
2022-12-13T10:59:17.068Z,5.30
2022-12-13T11:01:46.921Z,5.60
2022-12-13T11:04:27.926Z,5.23
2022-12-13T11:06:57.590Z,5.80
2022-12-13T11:09:28.354Z,6.67
2022-12-13T11:11:59.185Z,6.17
2022-12-13T11:14:31.884Z,7.20
2022-12-13T11:17:08.694Z,6.87
2022-12-13T11:19:45.661Z,7.23
2022-12-13T11:22:23.070Z,6.83
2022-12-13T11:24:53.498Z,6.53
2022-12-13T11:27:42.050Z,6.37
2022-12-13T11:30:14.638Z,6.70
2022-12-13T11:33:03.935Z,5.80
2022-12-13T11:35:42.645Z,5.73
2022-12-13T11:38:22.898Z,6.10
2022-12-13T11:40:59.195Z,6.70
2022-12-13T11:43:34.105Z,5.80
2022-12-13T11:46:07.584Z,5.97
2022-12-13T11:48:44.675Z,6.57
2022-12-13T11:51:16.970Z,5.57
2022-12-13T11:53:54.943Z,6.30
2022-12-13T11:56:27.625Z,5.53
2022-12-13T11:59:09.578Z,6.80
2022-12-13T12:01:47.692Z,6.13
2022-12-13T12:04:36.650Z,5.40
2022-12-13T12:07:31.732Z,7.00
2022-12-13T12:10:07.750Z,7.63
2022-12-13T12:12:38.244Z,6.93
2022-12-13T12:15:16.267Z,9.13
2022-12-13T12:17:45.875Z,9.20
2022-12-13T12:20:23.233Z,7.40
2022-12-13T12:23:05.528Z,8.67
2022-12-13T12:25:45.662Z,7.00
2022-12-13T12:28:25.653Z,6.77
2022-12-13T12:31:01.361Z,7.13
2022-12-13T12:33:39.397Z,6.70
2022-12-13T12:36:23.176Z,8.00
2022-12-13T12:39:28.472Z,6.10
2022-12-13T12:42:17.031Z,6.40
2022-12-13T12:45:02.010Z,6.73
2022-12-13T12:50:43.037Z,7.10
2022-12-13T12:53:33.886Z,6.13
2022-12-13T12:56:23.579Z,6.83
2022-12-13T12:58:58.433Z,7.23
2022-12-13T13:01:43.647Z,6.60
2022-12-13T13:04:22.116Z,6.03
2022-12-13T13:07:01.339Z,6.93
2022-12-13T13:09:32.447Z,6.13
2022-12-13T13:12:29.377Z,5.50
2022-12-13T13:14:54.013Z,7.13
2022-12-13T13:17:47.866Z,8.13
2022-12-13T13:20:24.539Z,5.77
2022-12-13T13:23:17.465Z,6.00
2022-12-13T13:26:16.093Z,6.80
2022-12-13T13:28:43.337Z,6.33
2022-12-13T13:31:11.556Z,6.43
2022-12-13T13:33:51.179Z,12.70
2022-12-13T13:36:47.828Z,7.73
2022-12-13T13:39:19.468Z,6.77
2022-12-13T13:42:18.851Z,7.13
2022-12-13T13:45:12.401Z,8.53
2022-12-13T13:47:45.539Z,7.50
2022-12-13T13:51:07.000Z,8.60
2022-12-13T13:54:37.372Z,6.97
2022-12-13T13:58:07.696Z,7.17
2022-12-13T14:00:30.009Z,7.63
2022-12-13T14:03:41.668Z,7.30
2022-12-13T14:06:46.412Z,8.57
2022-12-13T14:09:44.180Z,9.20
2022-12-13T14:12:55.405Z,7.70
2022-12-13T14:16:01.706Z,8.57
2022-12-13T14:19:06.882Z,6.70
2022-12-13T14:21:50.986Z,8.53
2022-12-13T14:24:39.823Z,8.63
2022-12-13T14:27:21.133Z,8.80
2022-12-13T14:29:58.315Z,9.00
2022-12-13T14:32:29.855Z,6.80
2022-12-13T14:34:59.252Z,7.73
2022-12-13T14:37:58.134Z,7.00
2022-12-13T14:40:29.854Z,9.00
2022-12-13T14:42:58.130Z,9.03
2022-12-13T14:45:29.628Z,9.17
2022-12-13T14:47:59.884Z,7.67
2022-12-13T14:50:30.010Z,6.20
2022-12-13T14:52:58.799Z,7.23
2022-12-13T14:55:30.497Z,7.13
2022-12-13T14:58:00.118Z,7.10
2022-12-13T15:00:35.786Z,8.40
2022-12-13T15:03:05.691Z,10.00
2022-12-13T15:05:38.654Z,9.07
2022-12-13T15:08:11.569Z,9.30
2022-12-13T15:10:48.015Z,10.43
2022-12-13T15:13:29.933Z,11.03
2022-12-13T15:16:10.425Z,11.37
2022-12-13T15:18:39.273Z,11.70
2022-12-13T15:21:21.750Z,15.43
2022-12-13T15:23:50.230Z,14.23
2022-12-13T15:26:28.665Z,14.50
2022-12-13T15:28:59.884Z,15.93
2022-12-13T15:31:32.939Z,18.17
2022-12-13T15:34:28.533Z,18.73
2022-12-13T15:36:59.261Z,18.53
2022-12-13T15:39:31.282Z,17.50
2022-12-13T15:42:01.025Z,18.07
2022-12-13T15:44:31.288Z,17.63
2022-12-13T15:47:05.266Z,17.37
2022-12-13T15:49:38.135Z,15.40
2022-12-13T15:52:08.502Z,16.43
2022-12-13T15:54:36.943Z,25.17
2022-12-13T15:57:15.212Z,18.40
2022-12-13T15:59:45.160Z,17.37
2022-12-13T16:02:20.345Z,19.10
2022-12-13T16:04:49.105Z,20.47
2022-12-13T16:07:26.090Z,60.17
2022-12-13T16:09:55.953Z,61.70
2022-12-13T16:12:30.531Z,84.17
2022-12-13T16:15:20.559Z,47.60
2022-12-13T16:18:08.673Z,19.27
2022-12-13T16:20:36.862Z,18.90
2022-12-13T16:23:09.219Z,22.30
2022-12-13T16:25:37.896Z,19.83
2022-12-13T16:28:06.550Z,18.53
2022-12-13T16:31:02.048Z,18.57
2022-12-13T16:33:31.920Z,17.70
2022-12-13T16:36:00.295Z,20.60
2022-12-13T16:38:28.888Z,23.97
2022-12-13T16:41:08.778Z,22.83
2022-12-13T16:43:40.796Z,20.07
2022-12-13T16:47:18.275Z,19.70
2022-12-13T16:49:06.687Z,20.70
2022-12-13T16:51:34.633Z,22.77
2022-12-13T16:54:03.410Z,19.77
2022-12-13T16:56:32.830Z,21.53
2022-12-13T16:59:00.989Z,17.93
2022-12-13T17:01:29.362Z,19.67
2022-12-13T17:03:57.663Z,20.77
2022-12-13T17:06:27.181Z,20.27
2022-12-13T17:08:55.255Z,19.67
2022-12-13T17:11:23.478Z,22.90
2022-12-13T17:13:51.707Z,25.53
2022-12-13T17:16:19.926Z,23.43
2022-12-13T17:18:49.847Z,23.67
2022-12-13T17:21:18.224Z,24.70
2022-12-13T17:23:48.006Z,22.10
2022-12-13T17:26:16.142Z,25.30
2022-12-13T17:28:44.253Z,22.40
2022-12-13T17:31:14.161Z,20.53
2022-12-13T17:33:42.854Z,19.17
2022-12-13T17:36:12.443Z,19.80
2022-12-13T17:38:43.999Z,19.90
2022-12-13T17:41:13.789Z,21.77
2022-12-13T17:43:42.913Z,21.03
2022-12-13T17:46:14.324Z,20.33
2022-12-13T17:48:43.459Z,20.57
2022-12-13T17:51:14.128Z,25.47
2022-12-13T17:53:44.012Z,17.97
2022-12-13T17:56:16.380Z,18.87
2022-12-13T17:58:45.020Z,20.70
2022-12-13T18:01:14.704Z,17.97
2022-12-13T18:03:43.125Z,18.97
2022-12-13T18:06:12.093Z,19.83
2022-12-13T18:08:42.528Z,19.57
2022-12-13T18:14:00.568Z,18.00
2022-12-13T18:16:35.800Z,18.23
2022-12-13T18:19:06.307Z,22.77
2022-12-13T18:21:35.538Z,21.03
2022-12-13T18:24:03.840Z,20.57
2022-12-13T18:26:32.046Z,22.73
2022-12-13T18:29:01.858Z,23.20
2022-12-13T18:31:30.073Z,23.77
2022-12-13T18:33:58.600Z,20.63
2022-12-13T18:36:27.164Z,17.47
2022-12-13T18:38:55.401Z,18.03
2022-12-13T18:41:28.127Z,17.73
2022-12-13T18:43:59.467Z,19.07
2022-12-13T18:46:31.165Z,18.47
2022-12-13T18:48:59.525Z,20.93
2022-12-13T18:51:28.906Z,17.37
2022-12-13T18:53:57.443Z,18.27
2022-12-13T18:56:26.227Z,15.57
2022-12-13T18:58:55.054Z,13.97
2022-12-13T19:01:26.940Z,15.13
2022-12-13T19:03:56.773Z,15.33
2022-12-13T19:06:26.570Z,17.07
2022-12-13T19:08:57.038Z,15.13
2022-12-13T19:11:26.018Z,21.87
2022-12-13T19:13:54.391Z,16.60
2022-12-13T19:16:24.256Z,17.30
2022-12-13T19:18:52.442Z,16.57
2022-12-13T19:21:23.117Z,16.87
2022-12-13T19:23:56.973Z,16.90
2022-12-13T19:26:26.511Z,17.87
2022-12-13T19:28:56.205Z,16.50
2022-12-13T19:31:30.325Z,16.53
2022-12-13T19:33:59.990Z,17.20
2022-12-13T19:36:29.774Z,15.70
2022-12-13T19:38:57.992Z,16.13
2022-12-13T19:41:26.349Z,15.63
2022-12-13T19:43:54.575Z,17.87
2022-12-13T19:46:23.342Z,16.60
2022-12-13T19:48:51.834Z,17.40
2022-12-13T19:51:20.164Z,22.80
2022-12-13T19:53:50.300Z,19.70
2022-12-13T19:56:20.113Z,17.67
2022-12-13T19:58:50.153Z,18.07
2022-12-13T20:01:18.822Z,18.80
2022-12-13T20:03:48.324Z,17.43
2022-12-13T20:06:18.534Z,16.40
2022-12-13T20:08:47.750Z,15.73
2022-12-13T20:11:20.415Z,17.33
2022-12-13T20:13:49.186Z,17.07
2022-12-13T20:16:18.964Z,14.73
2022-12-13T20:18:47.805Z,14.43
2022-12-13T20:21:16.596Z,17.50
2022-12-13T20:23:49.962Z,16.07
2022-12-13T20:26:22.181Z,17.37
2022-12-13T20:28:51.100Z,17.73
2022-12-13T20:31:21.940Z,16.93
2022-12-13T20:33:50.339Z,17.63
2022-12-13T20:36:25.557Z,18.67
2022-12-13T20:38:56.118Z,18.23
2022-12-13T20:41:28.225Z,19.87
2022-12-13T20:43:59.227Z,21.60
2022-12-13T20:46:29.004Z,19.70
2022-12-13T20:48:58.966Z,20.07
2022-12-13T20:51:29.293Z,18.93
2022-12-13T20:53:57.947Z,21.77
2022-12-13T20:56:29.811Z,19.87
2022-12-13T20:58:58.204Z,20.53
2022-12-13T21:01:30.555Z,18.40
2022-12-13T21:04:01.352Z,17.70
2022-12-13T21:06:31.309Z,18.60
2022-12-13T21:09:02.911Z,19.00
2022-12-13T21:11:35.074Z,20.50
2022-12-13T21:14:09.254Z,23.60
2022-12-13T21:16:41.699Z,17.23
2022-12-13T21:19:14.253Z,15.10
2022-12-13T21:21:42.553Z,14.33
2022-12-13T21:24:13.056Z,14.40
2022-12-13T21:26:42.801Z,11.33
2022-12-13T21:29:12.819Z,13.37
2022-12-13T21:31:43.121Z,12.97
2022-12-13T21:34:13.065Z,11.07
2022-12-13T21:36:43.001Z,11.33
2022-12-13T21:39:14.612Z,10.90
2022-12-13T21:41:44.946Z,10.80
2022-12-13T21:44:14.893Z,10.87
2022-12-13T21:49:31.669Z,11.23
2022-12-13T21:51:59.780Z,11.13
2022-12-13T21:54:27.937Z,11.20
2022-12-13T21:57:15.027Z,12.97
2022-12-13T21:59:43.242Z,12.23
2022-12-13T22:02:16.498Z,14.57
2022-12-13T22:04:47.170Z,12.97
2022-12-13T22:07:17.283Z,14.20
2022-12-13T22:09:46.406Z,12.97
2022-12-13T22:12:22.327Z,12.67
2022-12-13T22:14:51.491Z,11.40
2022-12-13T22:17:26.928Z,11.33
2022-12-13T22:19:59.782Z,11.57
2022-12-13T22:22:27.974Z,10.53
2022-12-13T22:24:56.160Z,11.43
2022-12-13T22:27:26.257Z,10.30
2022-12-13T22:29:57.030Z,11.87
2022-12-13T22:32:28.774Z,11.10
2022-12-13T22:34:56.908Z,10.60
2022-12-13T22:37:25.347Z,10.17
2022-12-13T22:39:54.071Z,11.07
2022-12-13T22:42:22.529Z,9.50
2022-12-13T22:44:52.183Z,9.10
2022-12-13T22:47:20.503Z,9.60
2022-12-13T22:49:49.002Z,10.07
2022-12-13T22:52:17.742Z,10.67
2022-12-13T22:54:45.978Z,9.60
2022-12-13T22:57:14.076Z,10.30
2022-12-13T22:59:42.155Z,9.77
2022-12-13T23:02:11.809Z,8.93
2022-12-13T23:04:39.930Z,9.27
2022-12-13T23:07:08.086Z,9.60
2022-12-13T23:09:36.259Z,8.90
2022-12-13T23:12:36.619Z,10.00
2022-12-13T23:15:05.323Z,8.67
2022-12-13T23:17:35.116Z,8.47
2022-12-13T23:20:04.612Z,9.30
2022-12-13T23:22:34.934Z,8.60
2022-12-13T23:25:02.991Z,8.80
2022-12-13T23:27:31.010Z,9.60
2022-12-13T23:29:59.105Z,9.23
2022-12-13T23:32:27.234Z,9.87
2022-12-13T23:34:56.817Z,9.93
2022-12-13T23:37:24.946Z,10.40
2022-12-13T23:39:53.020Z,10.50
2022-12-13T23:42:21.377Z,10.27
2022-12-13T23:44:50.949Z,10.93
2022-12-13T23:47:19.032Z,11.33
2022-12-13T23:49:48.258Z,10.83
2022-12-13T23:52:18.003Z,9.70
2022-12-13T23:54:46.074Z,9.83
2022-12-13T23:57:14.108Z,8.83
2022-12-13T23:59:42.239Z,8.57
